| time (UTC) | temp F | wind direction | speed MPH | gust MPH | rain 1hr in | rain 24hr in | rain mn in | humidity % | barometer mb |
| 20260505041504 | 41 | 294 | 0.0 | 2.0 | 0.00 | 0.25 | 0.25 | 89 | 1013.9 |
| 20260505041001 | 41 | 294 | 0.0 | 3.0 | 0.00 | 0.25 | 0.25 | 89 | 1014.0 |
| 20260505040506 | 41 | 294 | 0.0 | 6.0 | 0.00 | 0.25 | 0.25 | 89 | 1013.9 |
| 20260505040007 | 41 | 276 | 2.0 | 7.0 | 0.00 | 0.25 | 0.25 | 89 | 1013.9 |
| 20260505035511 | 41 | 232 | 2.0 | 7.0 | 0.00 | 0.25 | 0.25 | 89 | 1013.8 |
| 20260505035008 | 40 | 250 | 3.0 | 8.0 | 0.00 | 0.25 | 0.25 | 89 | 1013.8 |
| 20260505034511 | 40 | 246 | 3.0 | 8.0 | 0.00 | 0.25 | 0.25 | 89 | 1013.9 |
| 20260505034008 | 40 | 279 | 3.0 | 9.0 | 0.00 | 0.25 | 0.25 | 89 | 1013.9 |
| 20260505033506 | 40 | 259 | 5.0 | 9.0 | 0.00 | 0.25 | 0.25 | 89 | 1013.9 |
| 20260505033018 | 40 | 271 | 6.0 | 9.0 | 0.00 | 0.25 | 0.25 | 89 | 1014.0 |
| 20260505032507 | 40 | 251 | 5.0 | 8.0 | 0.00 | 0.25 | 0.25 | 89 | 1013.9 |
| 20260505032009 | 40 | 253 | 1.0 | 3.0 | 0.00 | 0.25 | 0.25 | 89 | 1013.8 |
| 20260505031504 | 40 | 301 | 0.0 | 2.0 | 0.00 | 0.25 | 0.25 | 88 | 1013.8 |
| 20260505031007 | 40 | 300 | 0.0 | 2.0 | 0.00 | 0.25 | 0.25 | 88 | 1013.7 |
| 20260505030503 | 40 | 301 | 0.0 | 2.0 | 0.00 | 0.25 | 0.25 | 88 | 1013.7 |
| 20260505030006 | 41 | 268 | 0.0 | 3.0 | 0.00 | 0.25 | 0.25 | 88 | 1013.7 |
| 20260505025505 | 41 | 294 | 1.0 | 3.0 | 0.00 | 0.25 | 0.25 | 87 | 1013.6 |
| 20260505025005 | 41 | 304 | 0.0 | 2.0 | 0.00 | 0.25 | 0.25 | 87 | 1013.6 |
| 20260505024509 | 41 | 304 | 0.0 | 2.0 | 0.00 | 0.25 | 0.25 | 87 | 1013.5 |
| 20260505024008 | 41 | 352 | 0.0 | 5.0 | 0.00 | 0.25 | 0.25 | 87 | 1013.5 |
| 20260505023506 | 41 | 360 | 0.0 | 8.0 | 0.00 | 0.25 | 0.25 | 86 | 1013.4 |
| 20260505023011 | 41 | 325 | 2.0 | 8.0 | 0.01 | 0.25 | 0.25 | 86 | 1013.3 |
| 20260505022508 | 41 | 319 | 2.0 | 9.0 | 0.02 | 0.25 | 0.25 | 86 | 1013.2 |
| 20260505022007 | 41 | 283 | 4.0 | 9.0 | 0.02 | 0.25 | 0.25 | 87 | 1013.2 |
| 20260505021512 | 41 | 279 | 3.0 | 6.0 | 0.02 | 0.25 | 0.25 | 87 | 1013.1 |
| 20260505021007 | 41 | 288 | 3.0 | 5.0 | 0.02 | 0.25 | 0.25 | 88 | 1013.2 |
| 20260505020506 | 41 | 243 | 2.0 | 4.0 | 0.02 | 0.25 | 0.25 | 88 | 1013.2 |
| 20260505020004 | 41 | 284 | 1.0 | 3.0 | 0.02 | 0.25 | 0.25 | 87 | 1013.3 |
| 20260505015502 | 41 | 347 | 1.0 | 3.0 | 0.02 | 0.25 | 0.25 | 87 | 1013.2 |
| 20260505015004 | 41 | 352 | 0.0 | 2.0 | 0.03 | 0.25 | 0.25 | 87 | 1013.1 |
| 20260505014509 | 41 | 352 | 1.0 | 4.0 | 0.03 | 0.25 | 0.25 | 87 | 1013.0 |
| 20260505014005 | 41 | 332 | 0.0 | 7.0 | 0.04 | 0.25 | 0.25 | 86 | 1013.2 |
| 20260505013505 | 41 | 360 | 1.0 | 7.0 | 0.05 | 0.25 | 0.25 | 86 | 1013.4 |
| 20260505013013 | 41 | 302 | 2.0 | 6.0 | 0.04 | 0.24 | 0.24 | 86 | 1013.4 |
| 20260505012507 | 41 | 265 | 1.0 | 6.0 | 0.04 | 0.23 | 0.23 | 85 | 1013.6 |
| 20260505012008 | 42 | 290 | 3.0 | 6.0 | 0.05 | 0.23 | 0.23 | 86 | 1013.8 |
| 20260505011520 | 42 | 273 | 2.0 | 7.0 | 0.07 | 0.23 | 0.23 | 86 | 1013.7 |
| 20260505011007 | 42 | 301 | 4.0 | 7.0 | 0.09 | 0.23 | 0.23 | 85 | 1013.7 |
| 20260505010507 | 42 | 243 | 3.0 | 6.0 | 0.12 | 0.23 | 0.23 | 86 | 1013.7 |
| 20260505010018 | 42 | 319 | 0.0 | 2.0 | 0.13 | 0.23 | 0.23 | 86 | 1013.7 |
| 20260505005508 | 42 | 319 | 0.0 | 3.0 | 0.14 | 0.23 | 0.23 | 84 | 1013.7 |
| 20260505005007 | 42 | 319 | 0.0 | 3.0 | 0.14 | 0.22 | 0.22 | 84 | 1013.7 |
| 20260505004534 | 43 | 319 | 1.0 | 3.0 | 0.15 | 0.22 | 0.22 | 86 | 1013.8 |
| 20260505004005 | 43 | 325 | 0.0 | 2.0 | 0.15 | 0.21 | 0.21 | 86 | 1013.8 |
| 20260505003507 | 43 | 325 | 0.0 | 2.0 | 0.14 | 0.20 | 0.20 | 86 | 1013.9 |
| 20260505003010 | 43 | 325 | 0.0 | 2.0 | 0.15 | 0.20 | 0.20 | 85 | 1013.9 |
| 20260505002506 | 43 | 325 | 0.0 | 2.0 | 0.14 | 0.19 | 0.19 | 85 | 1013.8 |
| 20260505002007 | 43 | 325 | 0.0 | 2.0 | 0.15 | 0.18 | 0.18 | 85 | 1013.8 |
| 20260505001513 | 44 | 325 | 0.0 | 2.0 | 0.14 | 0.16 | 0.16 | 85 | 1013.9 |
| 20260505001008 | 44 | 325 | 0.0 | 2.0 | 0.14 | 0.14 | 0.14 | 84 | 1013.8 |
| 20260505000507 | 44 | 325 | 0.0 | 2.0 | 0.11 | 0.11 | 0.11 | 84 | 1013.9 |
| 20260505000024 | 44 | 325 | 0.0 | 2.0 | 0.10 | 0.10 | 0.10 | 83 | 1013.9 |
| 20260504235506 | 44 | 325 | 0.0 | 2.0 | 0.09 | 0.09 | 0.09 | 82 | 1013.9 |
| 20260504235008 | 44 | 325 | 0.0 | 2.0 | 0.08 | 0.08 | 0.08 | 81 | 1013.9 |
| 20260504234528 | 45 | 325 | 0.0 | 2.0 | 0.07 | 0.07 | 0.07 | 80 | 1013.8 |
| 20260504234006 | 45 | 325 | 0.0 | 2.0 | 0.06 | 0.06 | 0.06 | 79 | 1013.8 |
| 20260504233507 | 45 | 325 | 1.0 | 8.0 | 0.06 | 0.06 | 0.06 | 78 | 1013.9 |
| 20260504233006 | 45 | 351 | 1.0 | 8.0 | 0.05 | 0.05 | 0.05 | 75 | 1013.8 |
| 20260504232504 | 46 | 11 | 3.0 | 8.0 | 0.05 | 0.05 | 0.05 | 71 | 1013.6 |
| 20260504232004 | 48 | 32 | 4.0 | 9.0 | 0.03 | 0.03 | 0.03 | 68 | 1013.5 |
| 20260504231530 | 49 | 329 | 4.0 | 9.0 | 0.02 | 0.02 | 0.02 | 66 | 1013.4 |
| 20260504231007 | 50 | 339 | 2.0 | 7.0 | 0.00 | 0.00 | 0.00 | 59 | 1013.1 |
| 20260504230506 | 50 | 299 | 2.0 | 5.0 | 0.00 | 0.00 | 0.00 | 61 | 1012.8 |
| 20260504230015 | 50 | 74 | 0.0 | 4.0 | 0.00 | 0.00 | 0.00 | 57 | 1012.5 |
| 20260504225513 | 50 | 74 | 0.0 | 6.0 | 0.00 | 0.00 | 0.00 | 57 | 1012.4 |
| 20260504225009 | 51 | 74 | 2.0 | 6.0 | 0.00 | 0.00 | 0.00 | 55 | 1012.4 |
| 20260504224519 | 51 | 114 | 1.0 | 7.0 | 0.00 | 0.00 | 0.00 | 57 | 1012.2 |
| 20260504224007 | 51 | 86 | 2.0 | 7.0 | 0.00 | 0.00 | 0.00 | 55 | 1012.0 |
| 20260504223510 | 52 | 168 | 1.0 | 6.0 | 0.00 | 0.00 | 0.00 | 52 | 1011.9 |
| 20260504223022 | 52 | 178 | 1.0 | 8.0 | 0.00 | 0.00 | 0.00 | 51 | 1011.8 |
| 20260504222508 | 53 | 242 | 2.0 | 9.0 | 0.00 | 0.00 | 0.00 | 51 | 1011.7 |
| 20260504222011 | 53 | 352 | 2.0 | 9.0 | 0.00 | 0.00 | 0.00 | 52 | 1011.7 |
| 20260504221508 | 52 | 298 | 4.0 | 10.0 | 0.00 | 0.00 | 0.00 | 54 | 1011.6 |
| 20260504221006 | 52 | 5 | 4.0 | 10.0 | 0.00 | 0.00 | 0.00 | 56 | 1011.6 |
| 20260504220507 | 52 | 331 | 1.0 | 5.0 | 0.00 | 0.00 | 0.00 | 55 | 1011.7 |
| 20260504220012 | 51 | 90 | 2.0 | 5.0 | 0.00 | 0.00 | 0.00 | 57 | 1011.8 |
| 20260504215507 | 51 | 44 | 2.0 | 9.0 | 0.00 | 0.00 | 0.00 | 54 | 1011.9 |
| 20260504215012 | 51 | 5 | 1.0 | 9.0 | 0.00 | 0.00 | 0.00 | 53 | 1012.0 |
| 20260504214526 | 52 | 273 | 3.0 | 13.0 | 0.00 | 0.00 | 0.00 | 53 | 1012.1 |
| 20260504214007 | 52 | 294 | 2.0 | 13.0 | 0.00 | 0.00 | 0.00 | 51 | 1012.1 |
| 20260504213511 | 53 | 288 | 8.0 | 13.0 | 0.00 | 0.00 | 0.00 | 47 | 1012.6 |
| 20260504213029 | 53 | 301 | 6.0 | 11.0 | 0.00 | 0.00 | 0.00 | 44 | 1012.5 |
| 20260504212504 | 53 | 298 | 2.0 | 4.0 | 0.00 | 0.00 | 0.00 | 45 | 1012.4 |
| 20260504212007 | 54 | 155 | 1.0 | 6.0 | 0.00 | 0.00 | 0.00 | 44 | 1012.2 |
| 20260504211505 | 53 | 157 | 0.0 | 12.0 | 0.00 | 0.00 | 0.00 | 45 | 1012.1 |
| 20260504211004 | 53 | 208 | 2.0 | 12.0 | 0.00 | 0.00 | 0.00 | 45 | 1012.1 |
| 20260504210503 | 54 | 190 | 4.0 | 10.0 | 0.00 | 0.00 | 0.00 | 45 | 1012.0 |
| 20260504210014 | 54 | 94 | 0.0 | 3.0 | 0.00 | 0.00 | 0.00 | 45 | 1012.0 |
| 20260504205507 | 53 | 250 | 0.0 | 2.0 | 0.00 | 0.00 | 0.00 | 45 | 1012.0 |
| 20260504205008 | 53 | 250 | 0.0 | 3.0 | 0.00 | 0.00 | 0.00 | 45 | 1012.0 |
| 20260504204505 | 53 | 259 | 1.0 | 8.0 | 0.00 | 0.00 | 0.00 | 46 | 1012.2 |
| 20260504204003 | 53 | 341 | 2.0 | 13.0 | 0.00 | 0.00 | 0.00 | 47 | 1012.3 |
| 20260504203503 | 53 | 332 | 6.0 | 16.0 | 0.00 | 0.00 | 0.00 | 45 | 1012.5 |
| 20260504203003 | 54 | 343 | 10.0 | 16.0 | 0.00 | 0.00 | 0.00 | 42 | 1012.5 |
| 20260504202504 | 54 | 318 | 1.0 | 3.0 | 0.00 | 0.00 | 0.00 | 40 | 1012.7 |
| 20260504202002 | 54 | 312 | 1.0 | 3.0 | 0.00 | 0.00 | 0.00 | 40 | 1012.5 |
| 20260504201506 | 54 | 333 | 1.0 | 6.0 | 0.00 | 0.00 | 0.00 | 40 | 1012.5 |
| 20260504201007 | 54 | 313 | 1.0 | 8.0 | 0.00 | 0.00 | 0.00 | 40 | 1012.7 |
| 20260504200507 | 54 | 314 | 3.0 | 10.0 | 0.00 | 0.00 | 0.00 | 39 | 1012.5 |
| 20260504200014 | 55 | 277 | 4.0 | 10.0 | 0.00 | 0.00 | 0.00 | 38 | 1012.5 |
| 20260504195509 | 55 | 335 | 6.0 | 13.0 | 0.00 | 0.00 | 0.00 | 38 | 1012.4 |
| 20260504195007 | 55 | 246 | 5.0 | 13.0 | 0.00 | 0.00 | 0.00 | 37 | 1012.5 |
| 20260504194513 | 56 | 306 | 5.0 | 12.0 | 0.00 | 0.00 | 0.00 | 35 | 1012.4 |
| 20260504194006 | 56 | 303 | 5.0 | 8.0 | 0.00 | 0.00 | 0.00 | 35 | 1012.4 |
| 20260504193508 | 56 | 284 | 4.0 | 7.0 | 0.00 | 0.00 | 0.00 | 34 | 1012.3 |
| 20260504193010 | 57 | 287 | 2.0 | 7.0 | 0.00 | 0.00 | 0.00 | 33 | 1012.3 |
| 20260504192503 | 57 | 313 | 2.0 | 7.0 | 0.00 | 0.00 | 0.00 | 33 | 1012.3 |
| 20260504192005 | 57 | 231 | 4.0 | 7.0 | 0.00 | 0.00 | 0.00 | 31 | 1012.4 |
| 20260504191507 | 57 | 259 | 1.0 | 3.0 | 0.00 | 0.00 | 0.00 | 33 | 1012.4 |
| 20260504191003 | 57 | 212 | 1.0 | 4.0 | 0.00 | 0.00 | 0.00 | 33 | 1012.5 |
| 20260504190505 | 57 | 147 | 1.0 | 4.0 | 0.00 | 0.00 | 0.00 | 36 | 1012.7 |
| 20260504190009 | 56 | 89 | 0.0 | 6.0 | 0.00 | 0.00 | 0.00 | 34 | 1012.8 |
| 20260504185506 | 56 | 149 | 2.0 | 7.0 | 0.00 | 0.00 | 0.00 | 34 | 1012.8 |
| 20260504185005 | 55 | 150 | 2.0 | 7.0 | 0.00 | 0.00 | 0.00 | 38 | 1012.9 |
| 20260504184513 | 54 | 94 | 0.0 | 5.0 | 0.00 | 0.00 | 0.00 | 41 | 1013.0 |
| 20260504184012 | 54 | 69 | 2.0 | 16.0 | 0.00 | 0.00 | 0.00 | 40 | 1013.0 |
| 20260504183509 | 54 | 57 | 2.0 | 16.0 | 0.00 | 0.00 | 0.00 | 41 | 1013.2 |
| 20260504183018 | 54 | 352 | 7.0 | 12.0 | 0.00 | 0.00 | 0.00 | 40 | 1013.3 |
| 20260504182509 | 54 | 28 | 5.0 | 14.0 | 0.00 | 0.00 | 0.00 | 39 | 1013.5 |
| 20260504182010 | 54 | 267 | 8.0 | 14.0 | 0.00 | 0.00 | 0.00 | 38 | 1013.5 |
| 20260504181504 | 54 | 298 | 2.0 | 10.0 | 0.00 | 0.00 | 0.00 | 36 | 1013.5 |
| 20260504181004 | 54 | 246 | 3.0 | 23.0 | 0.00 | 0.00 | 0.00 | 36 | 1013.5 |
| 20260504180507 | 55 | 301 | 6.0 | 23.0 | 0.00 | 0.00 | 0.00 | 37 | 1013.5 |
| 20260504180006 | 56 | 310 | 11.0 | 19.0 | 0.00 | 0.00 | 0.00 | 35 | 1013.6 |
| 20260504175503 | 57 | 5 | 9.0 | 15.0 | 0.00 | 0.00 | 0.00 | 31 | 1013.3 |
| 20260504175005 | 57 | 46 | 8.0 | 13.0 | 0.00 | 0.00 | 0.00 | 32 | 1013.2 |
| 20260504174510 | 58 | 352 | 4.0 | 13.0 | 0.00 | 0.00 | 0.00 | 33 | 1012.9 |
| 20260504174008 | 58 | 290 | 3.0 | 16.0 | 0.00 | 0.00 | 0.00 | 32 | 1012.8 |
| 20260504173507 | 58 | 250 | 5.0 | 16.0 | 0.00 | 0.00 | 0.00 | 32 | 1012.8 |
| 20260504173015 | 58 | 296 | 7.0 | 12.0 | 0.00 | 0.00 | 0.00 | 31 | 1012.8 |
| 20260504172509 | 59 | 198 | 8.0 | 12.0 | 0.00 | 0.00 | 0.00 | 31 | 1012.9 |
| 20260504172009 | 58 | 192 | 1.0 | 11.0 | 0.00 | 0.00 | 0.00 | 31 | 1012.9 |
| 20260504171534 | 58 | 298 | 4.0 | 16.0 | 0.00 | 0.00 | 0.00 | 31 | 1012.9 |
| 20260504171013 | 58 | 342 | 4.0 | 13.0 | 0.00 | 0.00 | 0.00 | 32 | 1012.9 |
| 20260504170508 | 58 | 298 | 5.0 | 10.0 | 0.00 | 0.00 | 0.00 | 32 | 1012.9 |
| 20260504151008 | 54 | 319 | 1.0 | 5.0 | 0.00 | 0.00 | 0.00 | 29 | 1012.9 |
| 20260504150508 | 54 | 253 | 1.0 | 7.0 | 0.00 | 0.00 | 0.00 | 29 | 1012.9 |
| 20260504141008 | 45 | 235 | 2.0 | 10.0 | 0.00 | 0.00 | 0.00 | 39 | 1013.4 |
| 20260504140508 | 44 | 275 | 2.0 | 10.0 | 0.00 | 0.00 | 0.00 | 39 | 1013.4 |
| 20260504130505 | 40 | 313 | 2.0 | 11.0 | 0.00 | 0.00 | 0.00 | 42 | 1013.4 |
| 20260504110506 | 38 | 259 | 3.0 | 10.0 | 0.00 | 0.00 | 0.00 | 42 | 1013.1 |
| 20260504100507 | 37 | 319 | 0.0 | 2.0 | 0.00 | 0.00 | 0.00 | 45 | 1013.3 |
| 20260504082007 | 37 | 271 | 3.0 | 8.0 | 0.00 | 0.00 | 0.00 | 44 | 1014.2 |
| 20260504081528 | 36 | 310 | 4.0 | 7.0 | 0.00 | 0.00 | 0.00 | 46 | 1014.3 |
| 20260504081008 | 36 | 5 | 2.0 | 6.0 | 0.00 | 0.00 | 0.00 | 48 | 1014.3 |
| 20260504080509 | 36 | 266 | 2.0 | 6.0 | 0.00 | 0.00 | 0.00 | 47 | 1014.3 |
| 20260504050506 | 47 | 288 | 7.0 | 12.0 | 0.00 | 0.00 | 0.00 | 32 | 1015.5 |
| 20260504050018 | 47 | 249 | 8.0 | 11.0 | 0.00 | 0.00 | 0.00 | 32 | 1015.5 |
| 20260504045507 | 47 | 242 | 5.0 | 11.0 | 0.00 | 0.00 | 0.00 | 32 | 1015.6 |
| 20260504045007 | 47 | 217 | 4.0 | 10.0 | 0.00 | 0.00 | 0.00 | 32 | 1015.7 |
| 20260504044526 | 47 | 230 | 2.0 | 10.0 | 0.00 | 0.00 | 0.00 | 32 | 1015.7 |
| 20260504044002 | 47 | 224 | 4.0 | 9.0 | 0.00 | 0.00 | 0.00 | 32 | 1015.7 |
| 20260504043503 | 47 | 250 | 2.0 | 11.0 | 0.00 | 0.00 | 0.00 | 32 | 1015.8 |
| 20260504043004 | 47 | 254 | 5.0 | 11.0 | 0.00 | 0.00 | 0.00 | 32 | 1015.8 |
| 20260504042503 | 47 | 220 | 6.0 | 10.0 | 0.00 | 0.00 | 0.00 | 32 | 1015.8 |
| 20260504042003 | 48 | 279 | 5.0 | 10.0 | 0.00 | 0.00 | 0.00 | 32 | 1015.9 |